sensor_id;sensor_type;location;lat;lon;timestamp;temperature;humidity
11095;DHT22;5601;44.490;11.400;2022-07-10T00:00:45;20.10;99.90
11095;DHT22;5601;44.490;11.400;2022-07-10T00:03:13;20.10;99.90
11095;DHT22;5601;44.490;11.400;2022-07-10T00:05:40;20.00;99.90
11095;DHT22;5601;44.490;11.400;2022-07-10T00:08:09;20.00;99.90
11095;DHT22;5601;44.490;11.400;2022-07-10T00:10:37;20.00;99.90
11095;DHT22;5601;44.490;11.400;2022-07-10T00:13:04;20.00;99.90
11095;DHT22;5601;44.490;11.400;2022-07-10T00:15:32;20.00;99.90
11095;DHT22;5601;44.490;11.400;2022-07-10T00:17:59;19.90;99.90
11095;DHT22;5601;44.490;11.400;2022-07-10T00:20:27;19.90;99.90
11095;DHT22;5601;44.490;11.400;2022-07-10T00:22:54;19.80;99.90
11095;DHT22;5601;44.490;11.400;2022-07-10T00:25:23;19.80;99.90
11095;DHT22;5601;44.490;11.400;2022-07-10T00:27:51;19.70;99.90
11095;DHT22;5601;44.490;11.400;2022-07-10T00:30:18;19.70;99.90
11095;DHT22;5601;44.490;11.400;2022-07-10T00:32:46;19.70;99.90
11095;DHT22;5601;44.490;11.400;2022-07-10T00:35:13;19.70;99.90
11095;DHT22;5601;44.490;11.400;2022-07-10T00:37:40;19.70;99.90
11095;DHT22;5601;44.490;11.400;2022-07-10T00:40:08;19.70;99.90
11095;DHT22;5601;44.490;11.400;2022-07-10T00:42:38;19.70;99.90
11095;DHT22;5601;44.490;11.400;2022-07-10T00:45:06;19.70;99.90
11095;DHT22;5601;44.490;11.400;2022-07-10T00:47:34;19.70;99.90
11095;DHT22;5601;44.490;11.400;2022-07-10T00:50:02;19.70;99.90
11095;DHT22;5601;44.490;11.400;2022-07-10T00:52:30;19.70;99.90
11095;DHT22;5601;44.490;11.400;2022-07-10T00:54:57;19.70;99.90
11095;DHT22;5601;44.490;11.400;2022-07-10T00:57:25;19.70;99.90
11095;DHT22;5601;44.490;11.400;2022-07-10T00:59:54;19.70;99.80
11095;DHT22;5601;44.490;11.400;2022-07-10T01:02:22;19.70;99.70
11095;DHT22;5601;44.490;11.400;2022-07-10T01:04:50;19.80;99.60
11095;DHT22;5601;44.490;11.400;2022-07-10T01:07:18;19.70;99.50
11095;DHT22;5601;44.490;11.400;2022-07-10T01:09:45;19.80;99.50
11095;DHT22;5601;44.490;11.400;2022-07-10T01:12:12;19.70;99.50
11095;DHT22;5601;44.490;11.400;2022-07-10T01:14:41;19.70;99.40
11095;DHT22;5601;44.490;11.400;2022-07-10T01:17:11;19.70;99.40
11095;DHT22;5601;44.490;11.400;2022-07-10T01:19:39;19.70;99.30
11095;DHT22;5601;44.490;11.400;2022-07-10T01:22:08;19.70;99.10
11095;DHT22;5601;44.490;11.400;2022-07-10T01:24:35;19.70;99.10
11095;DHT22;5601;44.490;11.400;2022-07-10T01:27:03;19.70;99.00
11095;DHT22;5601;44.490;11.400;2022-07-10T01:29:31;19.80;99.00
11095;DHT22;5601;44.490;11.400;2022-07-10T01:31:59;19.80;98.70
11095;DHT22;5601;44.490;11.400;2022-07-10T01:34:27;19.80;98.80
11095;DHT22;5601;44.490;11.400;2022-07-10T01:36:55;19.80;98.80
11095;DHT22;5601;44.490;11.400;2022-07-10T01:39:23;19.70;98.90
11095;DHT22;5601;44.490;11.400;2022-07-10T01:41:51;19.70;99.10
11095;DHT22;5601;44.490;11.400;2022-07-10T01:44:18;19.60;99.20
11095;DHT22;5601;44.490;11.400;2022-07-10T01:46:45;19.50;99.40
11095;DHT22;5601;44.490;11.400;2022-07-10T01:49:12;19.40;99.60
11095;DHT22;5601;44.490;11.400;2022-07-10T01:51:40;19.40;99.50
11095;DHT22;5601;44.490;11.400;2022-07-10T01:54:09;19.40;99.60
11095;DHT22;5601;44.490;11.400;2022-07-10T01:56:38;19.40;99.50
11095;DHT22;5601;44.490;11.400;2022-07-10T01:59:05;19.40;99.40
11095;DHT22;5601;44.490;11.400;2022-07-10T02:01:33;19.40;99.20
11095;DHT22;5601;44.490;11.400;2022-07-10T02:04:00;19.50;99.10
11095;DHT22;5601;44.490;11.400;2022-07-10T02:06:44;19.50;99.00
11095;DHT22;5601;44.490;11.400;2022-07-10T02:09:12;19.50;98.80
11095;DHT22;5601;44.490;11.400;2022-07-10T02:11:42;19.50;98.70
11095;DHT22;5601;44.490;11.400;2022-07-10T02:14:10;19.60;98.60
11095;DHT22;5601;44.490;11.400;2022-07-10T02:16:37;19.50;98.50
11095;DHT22;5601;44.490;11.400;2022-07-10T02:19:05;19.50;98.50
11095;DHT22;5601;44.490;11.400;2022-07-10T02:21:33;19.50;98.60
11095;DHT22;5601;44.490;11.400;2022-07-10T02:24:00;19.50;98.60
11095;DHT22;5601;44.490;11.400;2022-07-10T02:26:28;19.50;98.60
11095;DHT22;5601;44.490;11.400;2022-07-10T02:28:56;19.50;98.50
11095;DHT22;5601;44.490;11.400;2022-07-10T02:31:24;19.50;98.50
11095;DHT22;5601;44.490;11.400;2022-07-10T02:33:52;19.50;98.60
11095;DHT22;5601;44.490;11.400;2022-07-10T02:36:20;19.40;98.60
11095;DHT22;5601;44.490;11.400;2022-07-10T02:38:47;19.40;98.90
11095;DHT22;5601;44.490;11.400;2022-07-10T02:41:14;19.30;99.00
11095;DHT22;5601;44.490;11.400;2022-07-10T02:43:42;19.30;98.90
11095;DHT22;5601;44.490;11.400;2022-07-10T02:46:11;19.30;98.80
11095;DHT22;5601;44.490;11.400;2022-07-10T02:48:39;19.30;98.70
11095;DHT22;5601;44.490;11.400;2022-07-10T02:51:06;19.40;98.80
11095;DHT22;5601;44.490;11.400;2022-07-10T02:53:34;19.40;98.70
11095;DHT22;5601;44.490;11.400;2022-07-10T02:56:01;19.40;98.70
11095;DHT22;5601;44.490;11.400;2022-07-10T02:58:28;19.40;98.70
11095;DHT22;5601;44.490;11.400;2022-07-10T03:00:56;19.40;98.60
11095;DHT22;5601;44.490;11.400;2022-07-10T03:03:24;19.50;98.60
11095;DHT22;5601;44.490;11.400;2022-07-10T03:05:52;19.40;98.60
11095;DHT22;5601;44.490;11.400;2022-07-10T03:08:19;19.40;98.60
11095;DHT22;5601;44.490;11.400;2022-07-10T03:10:46;19.40;98.60
11095;DHT22;5601;44.490;11.400;2022-07-10T03:13:14;19.40;98.70
11095;DHT22;5601;44.490;11.400;2022-07-10T03:15:42;19.40;98.70
11095;DHT22;5601;44.490;11.400;2022-07-10T03:18:09;19.40;98.70
11095;DHT22;5601;44.490;11.400;2022-07-10T03:20:39;19.40;98.70
11095;DHT22;5601;44.490;11.400;2022-07-10T03:23:06;19.40;98.60
11095;DHT22;5601;44.490;11.400;2022-07-10T03:25:34;19.40;98.70
11095;DHT22;5601;44.490;11.400;2022-07-10T03:28:02;19.40;98.70
11095;DHT22;5601;44.490;11.400;2022-07-10T03:30:29;19.40;98.70
11095;DHT22;5601;44.490;11.400;2022-07-10T03:32:57;19.30;98.70
11095;DHT22;5601;44.490;11.400;2022-07-10T03:35:25;19.30;98.80
11095;DHT22;5601;44.490;11.400;2022-07-10T03:37:54;19.30;98.80
11095;DHT22;5601;44.490;11.400;2022-07-10T03:40:21;19.30;98.70
11095;DHT22;5601;44.490;11.400;2022-07-10T03:42:50;19.30;98.70
11095;DHT22;5601;44.490;11.400;2022-07-10T03:45:17;19.30;98.60
11095;DHT22;5601;44.490;11.400;2022-07-10T03:47:45;19.40;98.80
11095;DHT22;5601;44.490;11.400;2022-07-10T03:50:12;19.40;98.50
11095;DHT22;5601;44.490;11.400;2022-07-10T03:52:40;19.40;98.50
11095;DHT22;5601;44.490;11.400;2022-07-10T03:55:10;19.50;98.30
11095;DHT22;5601;44.490;11.400;2022-07-10T03:57:38;19.50;98.20
11095;DHT22;5601;44.490;11.400;2022-07-10T11:27:52;31.90;73.60
11095;DHT22;5601;44.490;11.400;2022-07-10T11:30:21;31.80;73.60
11095;DHT22;5601;44.490;11.400;2022-07-10T11:32:49;31.70;73.90
11095;DHT22;5601;44.490;11.400;2022-07-10T11:35:16;31.80;74.10
11095;DHT22;5601;44.490;11.400;2022-07-10T11:37:52;32.00;74.00
11095;DHT22;5601;44.490;11.400;2022-07-10T11:40:20;32.10;74.50
11095;DHT22;5601;44.490;11.400;2022-07-10T11:42:50;32.20;73.70
11095;DHT22;5601;44.490;11.400;2022-07-10T11:45:25;32.20;74.20
11095;DHT22;5601;44.490;11.400;2022-07-10T11:47:53;32.30;73.80
11095;DHT22;5601;44.490;11.400;2022-07-10T11:50:20;32.40;73.80
11095;DHT22;5601;44.490;11.400;2022-07-10T11:52:48;32.20;74.00
11095;DHT22;5601;44.490;11.400;2022-07-10T11:55:16;32.30;73.80
11095;DHT22;5601;44.490;11.400;2022-07-10T11:57:43;32.40;73.90
11095;DHT22;5601;44.490;11.400;2022-07-10T12:00:23;32.60;73.00
11095;DHT22;5601;44.490;11.400;2022-07-10T12:02:51;32.80;73.30
11095;DHT22;5601;44.490;11.400;2022-07-10T12:05:33;32.60;72.90
11095;DHT22;5601;44.490;11.400;2022-07-10T12:08:01;32.50;73.30
11095;DHT22;5601;44.490;11.400;2022-07-10T12:10:29;32.40;73.70
11095;DHT22;5601;44.490;11.400;2022-07-10T12:13:06;32.30;73.50
11095;DHT22;5601;44.490;11.400;2022-07-10T12:15:36;32.20;73.70
11095;DHT22;5601;44.490;11.400;2022-07-10T12:18:05;32.40;74.10
11095;DHT22;5601;44.490;11.400;2022-07-10T12:20:33;32.50;73.30
11095;DHT22;5601;44.490;11.400;2022-07-10T12:23:00;32.50;73.10
11095;DHT22;5601;44.490;11.400;2022-07-10T12:25:28;32.50;73.20
11095;DHT22;5601;44.490;11.400;2022-07-10T12:27:56;32.50;73.40
11095;DHT22;5601;44.490;11.400;2022-07-10T12:30:36;32.50;73.60
11095;DHT22;5601;44.490;11.400;2022-07-10T12:33:10;32.80;74.70
11095;DHT22;5601;44.490;11.400;2022-07-10T12:35:52;32.80;73.80
11095;DHT22;5601;44.490;11.400;2022-07-10T12:38:21;33.00;74.20
11095;DHT22;5601;44.490;11.400;2022-07-10T12:40:49;33.20;72.90
11095;DHT22;5601;44.490;11.400;2022-07-10T12:43:27;33.00;72.90
11095;DHT22;5601;44.490;11.400;2022-07-10T12:46:15;32.70;73.10
11095;DHT22;5601;44.490;11.400;2022-07-10T12:49:01;32.80;73.30
11095;DHT22;5601;44.490;11.400;2022-07-10T12:51:30;32.90;73.20
11095;DHT22;5601;44.490;11.400;2022-07-10T12:53:57;33.10;73.10
11095;DHT22;5601;44.490;11.400;2022-07-10T12:56:30;33.10;72.60
11095;DHT22;5601;44.490;11.400;2022-07-10T12:58:57;33.00;72.50
11095;DHT22;5601;44.490;11.400;2022-07-10T13:01:28;32.90;72.90
11095;DHT22;5601;44.490;11.400;2022-07-10T13:04:00;32.90;73.30
11095;DHT22;5601;44.490;11.400;2022-07-10T13:06:29;32.90;72.50
11095;DHT22;5601;44.490;11.400;2022-07-10T13:08:56;32.90;73.10
11095;DHT22;5601;44.490;11.400;2022-07-10T13:11:24;33.20;72.80
11095;DHT22;5601;44.490;11.400;2022-07-10T13:13:52;33.20;73.00
11095;DHT22;5601;44.490;11.400;2022-07-10T13:16:20;33.20;73.00
11095;DHT22;5601;44.490;11.400;2022-07-10T13:18:49;33.40;72.20
11095;DHT22;5601;44.490;11.400;2022-07-10T13:21:16;33.60;73.00
11095;DHT22;5601;44.490;11.400;2022-07-10T13:23:43;33.70;72.00
11095;DHT22;5601;44.490;11.400;2022-07-10T13:26:11;33.70;72.10
11095;DHT22;5601;44.490;11.400;2022-07-10T13:28:38;33.60;72.20
11095;DHT22;5601;44.490;11.400;2022-07-10T13:31:06;33.60;72.10
11095;DHT22;5601;44.490;11.400;2022-07-10T13:33:34;33.30;71.50
11095;DHT22;5601;44.490;11.400;2022-07-10T13:36:04;33.10;72.70
11095;DHT22;5601;44.490;11.400;2022-07-10T13:38:31;33.10;72.10
11095;DHT22;5601;44.490;11.400;2022-07-10T13:40:59;33.00;72.40
11095;DHT22;5601;44.490;11.400;2022-07-10T13:43:26;32.80;72.80
11095;DHT22;5601;44.490;11.400;2022-07-10T13:45:56;32.90;72.50
11095;DHT22;5601;44.490;11.400;2022-07-10T13:48:24;32.90;72.60
11095;DHT22;5601;44.490;11.400;2022-07-10T13:50:52;32.90;73.10
11095;DHT22;5601;44.490;11.400;2022-07-10T13:53:21;33.10;72.40
11095;DHT22;5601;44.490;11.400;2022-07-10T13:55:49;32.60;72.10
11095;DHT22;5601;44.490;11.400;2022-07-10T13:58:16;32.50;72.70
11095;DHT22;5601;44.490;11.400;2022-07-10T14:00:46;32.60;72.10
11095;DHT22;5601;44.490;11.400;2022-07-10T14:03:13;32.70;72.50
11095;DHT22;5601;44.490;11.400;2022-07-10T14:05:40;32.90;72.70
11095;DHT22;5601;44.490;11.400;2022-07-10T14:08:07;33.20;72.20
11095;DHT22;5601;44.490;11.400;2022-07-10T14:10:37;33.10;71.50
11095;DHT22;5601;44.490;11.400;2022-07-10T14:13:04;33.20;71.40
11095;DHT22;5601;44.490;11.400;2022-07-10T14:15:34;33.30;72.70
11095;DHT22;5601;44.490;11.400;2022-07-10T14:18:01;33.30;71.70
11095;DHT22;5601;44.490;11.400;2022-07-10T14:20:30;33.40;71.40
11095;DHT22;5601;44.490;11.400;2022-07-10T14:23:18;33.20;71.50
11095;DHT22;5601;44.490;11.400;2022-07-10T14:25:47;33.20;71.60
11095;DHT22;5601;44.490;11.400;2022-07-10T14:28:15;33.10;71.50
11095;DHT22;5601;44.490;11.400;2022-07-10T14:30:42;33.10;71.40
11095;DHT22;5601;44.490;11.400;2022-07-10T14:33:09;33.40;72.50
11095;DHT22;5601;44.490;11.400;2022-07-10T14:35:36;33.50;71.40
11095;DHT22;5601;44.490;11.400;2022-07-10T14:38:04;33.40;71.70
11095;DHT22;5601;44.490;11.400;2022-07-10T14:40:31;33.40;72.00
11095;DHT22;5601;44.490;11.400;2022-07-10T14:43:01;33.40;71.60
11095;DHT22;5601;44.490;11.400;2022-07-10T14:45:28;33.30;71.50
11095;DHT22;5601;44.490;11.400;2022-07-10T14:47:56;33.20;71.30
11095;DHT22;5601;44.490;11.400;2022-07-10T14:50:24;33.30;71.40
11095;DHT22;5601;44.490;11.400;2022-07-10T14:52:51;33.40;71.10
11095;DHT22;5601;44.490;11.400;2022-07-10T14:55:19;33.50;71.90
11095;DHT22;5601;44.490;11.400;2022-07-10T14:57:46;33.60;71.70
11095;DHT22;5601;44.490;11.400;2022-07-10T15:00:15;33.40;70.80
11095;DHT22;5601;44.490;11.400;2022-07-10T15:02:44;33.00;71.40
11095;DHT22;5601;44.490;11.400;2022-07-10T15:05:12;32.90;71.30
11095;DHT22;5601;44.490;11.400;2022-07-10T15:07:40;32.90;70.20
11095;DHT22;5601;44.490;11.400;2022-07-10T15:10:08;32.90;70.10
11095;DHT22;5601;44.490;11.400;2022-07-10T15:12:36;33.00;69.70
11095;DHT22;5601;44.490;11.400;2022-07-10T15:15:04;33.20;70.10
11095;DHT22;5601;44.490;11.400;2022-07-10T15:17:35;33.20;68.90
11095;DHT22;5601;44.490;11.400;2022-07-10T15:20:02;33.20;68.80
11095;DHT22;5601;44.490;11.400;2022-07-10T15:22:30;33.30;69.30
11095;DHT22;5601;44.490;11.400;2022-07-10T15:24:58;33.40;68.40
11095;DHT22;5601;44.490;11.400;2022-07-10T15:27:26;33.60;67.20
11095;DHT22;5601;44.490;11.400;2022-07-10T15:29:53;33.70;67.70
11095;DHT22;5601;44.490;11.400;2022-07-10T15:32:21;33.60;67.30
11095;DHT22;5601;44.490;11.400;2022-07-10T15:34:50;33.60;67.90
11095;DHT22;5601;44.490;11.400;2022-07-10T15:37:19;33.70;67.50
11095;DHT22;5601;44.490;11.400;2022-07-10T15:39:46;33.70;66.00
11095;DHT22;5601;44.490;11.400;2022-07-10T15:42:14;33.70;66.90
11095;DHT22;5601;44.490;11.400;2022-07-10T15:44:41;33.60;67.50
11095;DHT22;5601;44.490;11.400;2022-07-10T15:47:09;33.40;67.00
11095;DHT22;5601;44.490;11.400;2022-07-10T15:49:37;33.20;67.80
11095;DHT22;5601;44.490;11.400;2022-07-10T15:52:07;33.10;67.00
11095;DHT22;5601;44.490;11.400;2022-07-10T15:54:34;33.20;67.20
11095;DHT22;5601;44.490;11.400;2022-07-10T15:57:04;33.30;66.30
11095;DHT22;5601;44.490;11.400;2022-07-10T15:59:32;33.20;66.60
11095;DHT22;5601;44.490;11.400;2022-07-10T16:02:01;33.40;66.70
11095;DHT22;5601;44.490;11.400;2022-07-10T16:04:28;33.30;66.90
11095;DHT22;5601;44.490;11.400;2022-07-10T16:06:56;33.40;66.70
11095;DHT22;5601;44.490;11.400;2022-07-10T16:09:25;33.30;67.20
11095;DHT22;5601;44.490;11.400;2022-07-10T16:11:52;33.30;67.10
11095;DHT22;5601;44.490;11.400;2022-07-10T16:14:20;33.20;67.40
11095;DHT22;5601;44.490;11.400;2022-07-10T16:16:47;33.40;68.00
11095;DHT22;5601;44.490;11.400;2022-07-10T16:19:16;33.50;66.80
11095;DHT22;5601;44.490;11.400;2022-07-10T16:21:44;33.50;66.60
11095;DHT22;5601;44.490;11.400;2022-07-10T16:24:11;33.50;65.90
11095;DHT22;5601;44.490;11.400;2022-07-10T16:26:40;33.60;65.90
11095;DHT22;5601;44.490;11.400;2022-07-10T16:29:08;33.40;65.50
11095;DHT22;5601;44.490;11.400;2022-07-10T16:31:35;33.40;65.60
11095;DHT22;5601;44.490;11.400;2022-07-10T16:34:06;33.20;66.50
11095;DHT22;5601;44.490;11.400;2022-07-10T16:36:33;33.00;66.80
11095;DHT22;5601;44.490;11.400;2022-07-10T16:39:00;33.00;66.50
11095;DHT22;5601;44.490;11.400;2022-07-10T16:41:28;32.90;65.80
11095;DHT22;5601;44.490;11.400;2022-07-10T16:43:57;32.80;66.10
11095;DHT22;5601;44.490;11.400;2022-07-10T16:46:24;32.70;66.30
11095;DHT22;5601;44.490;11.400;2022-07-10T16:48:52;32.70;66.70
11095;DHT22;5601;44.490;11.400;2022-07-10T16:51:20;32.70;68.80
11095;DHT22;5601;44.490;11.400;2022-07-10T16:53:48;32.70;68.70
11095;DHT22;5601;44.490;11.400;2022-07-10T16:56:19;32.80;69.20
11095;DHT22;5601;44.490;11.400;2022-07-10T16:58:47;32.70;68.90
11095;DHT22;5601;44.490;11.400;2022-07-10T17:01:17;32.80;68.30
11095;DHT22;5601;44.490;11.400;2022-07-10T17:03:45;32.80;68.40
11095;DHT22;5601;44.490;11.400;2022-07-10T17:06:12;32.70;72.20
11095;DHT22;5601;44.490;11.400;2022-07-10T17:08:39;32.50;73.60
11095;DHT22;5601;44.490;11.400;2022-07-10T17:11:07;32.50;74.70
11095;DHT22;5601;44.490;11.400;2022-07-10T17:13:34;32.30;75.10
11095;DHT22;5601;44.490;11.400;2022-07-10T17:16:01;32.20;74.80
11095;DHT22;5601;44.490;11.400;2022-07-10T17:18:31;32.10;75.40
11095;DHT22;5601;44.490;11.400;2022-07-10T17:20:58;32.10;75.70
11095;DHT22;5601;44.490;11.400;2022-07-10T17:23:26;32.00;76.10
11095;DHT22;5601;44.490;11.400;2022-07-10T18:40:53;29.60;92.60
11095;DHT22;5601;44.490;11.400;2022-07-10T18:43:23;29.10;93.00
11095;DHT22;5601;44.490;11.400;2022-07-10T18:45:51;28.70;93.40
11095;DHT22;5601;44.490;11.400;2022-07-10T18:48:20;28.40;93.80
11095;DHT22;5601;44.490;11.400;2022-07-10T18:50:47;28.10;94.10
11095;DHT22;5601;44.490;11.400;2022-07-10T18:53:14;27.90;94.30
11095;DHT22;5601;44.490;11.400;2022-07-10T18:55:42;27.70;94.50
11095;DHT22;5601;44.490;11.400;2022-07-10T18:58:11;27.50;94.60
11095;DHT22;5601;44.490;11.400;2022-07-10T19:00:39;27.40;94.80
11095;DHT22;5601;44.490;11.400;2022-07-10T19:03:07;27.30;94.90
11095;DHT22;5601;44.490;11.400;2022-07-10T19:05:35;27.20;95.10
11095;DHT22;5601;44.490;11.400;2022-07-10T19:08:04;27.10;95.20
11095;DHT22;5601;44.490;11.400;2022-07-10T19:10:31;27.00;95.20
11095;DHT22;5601;44.490;11.400;2022-07-10T19:12:59;26.90;95.30
11095;DHT22;5601;44.490;11.400;2022-07-10T19:15:28;26.80;95.10
11095;DHT22;5601;44.490;11.400;2022-07-10T19:17:56;26.70;95.20
11095;DHT22;5601;44.490;11.400;2022-07-10T19:20:24;26.60;95.20
11095;DHT22;5601;44.490;11.400;2022-07-10T19:22:53;26.50;95.00
11095;DHT22;5601;44.490;11.400;2022-07-10T19:25:20;26.40;95.00
11095;DHT22;5601;44.490;11.400;2022-07-10T19:27:49;26.40;95.00
11095;DHT22;5601;44.490;11.400;2022-07-10T19:30:16;26.30;95.00
11095;DHT22;5601;44.490;11.400;2022-07-10T19:32:45;26.20;95.00
11095;DHT22;5601;44.490;11.400;2022-07-10T19:35:12;26.20;95.00
11095;DHT22;5601;44.490;11.400;2022-07-10T19:37:41;26.10;95.00
11095;DHT22;5601;44.490;11.400;2022-07-10T19:40:09;26.10;94.90
11095;DHT22;5601;44.490;11.400;2022-07-10T19:42:36;26.00;94.90
11095;DHT22;5601;44.490;11.400;2022-07-10T19:45:04;26.00;95.00
11095;DHT22;5601;44.490;11.400;2022-07-10T19:47:32;25.90;95.00
11095;DHT22;5601;44.490;11.400;2022-07-10T19:50:00;25.90;95.00
11095;DHT22;5601;44.490;11.400;2022-07-10T19:52:27;25.90;95.00
11095;DHT22;5601;44.490;11.400;2022-07-10T19:54:55;25.80;95.00
11095;DHT22;5601;44.490;11.400;2022-07-10T19:57:22;25.80;95.10
11095;DHT22;5601;44.490;11.400;2022-07-10T19:59:50;25.70;95.10
11095;DHT22;5601;44.490;11.400;2022-07-10T20:02:17;25.70;95.20
11095;DHT22;5601;44.490;11.400;2022-07-10T20:04:45;25.70;95.30
11095;DHT22;5601;44.490;11.400;2022-07-10T20:07:13;25.60;95.30
11095;DHT22;5601;44.490;11.400;2022-07-10T20:09:41;25.60;95.30
11095;DHT22;5601;44.490;11.400;2022-07-10T20:12:09;25.50;95.40
11095;DHT22;5601;44.490;11.400;2022-07-10T20:14:36;25.40;95.50
11095;DHT22;5601;44.490;11.400;2022-07-10T20:17:04;25.40;95.60
11095;DHT22;5601;44.490;11.400;2022-07-10T20:19:31;25.40;95.80
11095;DHT22;5601;44.490;11.400;2022-07-10T20:22:00;25.20;95.80
11095;DHT22;5601;44.490;11.400;2022-07-10T20:24:30;25.20;96.00
11095;DHT22;5601;44.490;11.400;2022-07-10T20:26:58;25.10;96.10
11095;DHT22;5601;44.490;11.400;2022-07-10T20:29:25;25.10;96.20
11095;DHT22;5601;44.490;11.400;2022-07-10T20:31:53;25.10;96.40
11095;DHT22;5601;44.490;11.400;2022-07-10T20:34:21;25.00;96.40
11095;DHT22;5601;44.490;11.400;2022-07-10T20:36:48;25.00;96.50
11095;DHT22;5601;44.490;11.400;2022-07-10T20:39:34;25.00;96.50
11095;DHT22;5601;44.490;11.400;2022-07-10T20:42:03;25.00;96.60
11095;DHT22;5601;44.490;11.400;2022-07-10T20:44:30;24.90;96.70
11095;DHT22;5601;44.490;11.400;2022-07-10T20:46:58;24.90;96.80
11095;DHT22;5601;44.490;11.400;2022-07-10T20:49:26;24.80;96.90
11095;DHT22;5601;44.490;11.400;2022-07-10T20:51:53;24.80;97.10
11095;DHT22;5601;44.490;11.400;2022-07-10T20:54:21;24.80;97.20
11095;DHT22;5601;44.490;11.400;2022-07-10T20:56:50;24.70;97.20
11095;DHT22;5601;44.490;11.400;2022-07-10T20:59:18;24.70;97.40
11095;DHT22;5601;44.490;11.400;2022-07-10T21:01:46;24.70;97.40
11095;DHT22;5601;44.490;11.400;2022-07-10T21:04:13;24.70;97.50
11095;DHT22;5601;44.490;11.400;2022-07-10T21:06:40;24.60;97.50
11095;DHT22;5601;44.490;11.400;2022-07-10T21:09:08;24.60;97.70
11095;DHT22;5601;44.490;11.400;2022-07-10T21:11:36;24.60;97.80
11095;DHT22;5601;44.490;11.400;2022-07-10T21:14:05;24.50;98.00
11095;DHT22;5601;44.490;11.400;2022-07-10T21:16:32;24.50;98.10
11095;DHT22;5601;44.490;11.400;2022-07-10T21:19:00;24.50;98.00
11095;DHT22;5601;44.490;11.400;2022-07-10T21:21:27;24.50;98.10
11095;DHT22;5601;44.490;11.400;2022-07-10T21:23:55;24.60;98.10
11095;DHT22;5601;44.490;11.400;2022-07-10T21:26:22;24.60;98.20
11095;DHT22;5601;44.490;11.400;2022-07-10T21:28:50;24.50;98.30
11095;DHT22;5601;44.490;11.400;2022-07-10T21:31:20;24.40;98.10
11095;DHT22;5601;44.490;11.400;2022-07-10T21:33:48;24.50;98.20
11095;DHT22;5601;44.490;11.400;2022-07-10T21:36:15;24.50;98.30
11095;DHT22;5601;44.490;11.400;2022-07-10T21:38:43;24.40;98.30
11095;DHT22;5601;44.490;11.400;2022-07-10T21:41:10;24.40;98.50
11095;DHT22;5601;44.490;11.400;2022-07-10T21:43:37;24.30;98.50
11095;DHT22;5601;44.490;11.400;2022-07-10T21:46:05;24.20;98.70
11095;DHT22;5601;44.490;11.400;2022-07-10T21:48:35;24.10;98.90
11095;DHT22;5601;44.490;11.400;2022-07-10T21:51:03;24.00;99.10
11095;DHT22;5601;44.490;11.400;2022-07-10T21:53:30;23.90;99.30
11095;DHT22;5601;44.490;11.400;2022-07-10T21:55:57;23.80;99.60
11095;DHT22;5601;44.490;11.400;2022-07-10T21:58:26;23.70;99.90
11095;DHT22;5601;44.490;11.400;2022-07-10T22:00:53;23.60;99.90
11095;DHT22;5601;44.490;11.400;2022-07-10T22:03:21;23.50;99.90
11095;DHT22;5601;44.490;11.400;2022-07-10T22:05:50;23.30;99.90
11095;DHT22;5601;44.490;11.400;2022-07-10T22:08:18;23.20;99.90
11095;DHT22;5601;44.490;11.400;2022-07-10T22:10:45;23.20;99.90
11095;DHT22;5601;44.490;11.400;2022-07-10T22:13:13;23.10;99.90
11095;DHT22;5601;44.490;11.400;2022-07-10T22:15:41;23.00;99.90
11095;DHT22;5601;44.490;11.400;2022-07-10T22:18:09;22.90;99.90
11095;DHT22;5601;44.490;11.400;2022-07-10T22:20:36;22.80;99.90
11095;DHT22;5601;44.490;11.400;2022-07-10T22:23:05;22.80;99.90
11095;DHT22;5601;44.490;11.400;2022-07-10T22:25:33;22.80;99.90
11095;DHT22;5601;44.490;11.400;2022-07-10T22:28:00;22.70;99.90
11095;DHT22;5601;44.490;11.400;2022-07-10T22:30:27;22.70;99.90
11095;DHT22;5601;44.490;11.400;2022-07-10T22:33:12;22.60;99.90
11095;DHT22;5601;44.490;11.400;2022-07-10T22:35:43;22.60;99.90
11095;DHT22;5601;44.490;11.400;2022-07-10T22:38:12;22.50;99.90
11095;DHT22;5601;44.490;11.400;2022-07-10T22:40:40;22.40;99.90
11095;DHT22;5601;44.490;11.400;2022-07-10T22:43:07;22.40;99.90
11095;DHT22;5601;44.490;11.400;2022-07-10T22:45:35;22.40;99.90
11095;DHT22;5601;44.490;11.400;2022-07-10T22:48:04;22.30;99.90
11095;DHT22;5601;44.490;11.400;2022-07-10T22:50:32;22.30;99.90
11095;DHT22;5601;44.490;11.400;2022-07-10T22:53:00;22.30;99.90
11095;DHT22;5601;44.490;11.400;2022-07-10T22:55:30;22.20;99.90
11095;DHT22;5601;44.490;11.400;2022-07-10T22:57:57;22.30;99.90
11095;DHT22;5601;44.490;11.400;2022-07-10T23:00:25;22.20;99.90
11095;DHT22;5601;44.490;11.400;2022-07-10T23:02:52;22.20;99.90
11095;DHT22;5601;44.490;11.400;2022-07-10T23:05:20;22.10;99.90
11095;DHT22;5601;44.490;11.400;2022-07-10T23:42:17;22.30;99.90
11095;DHT22;5601;44.490;11.400;2022-07-10T23:44:45;22.20;99.90
11095;DHT22;5601;44.490;11.400;2022-07-10T23:47:14;22.00;99.90
11095;DHT22;5601;44.490;11.400;2022-07-10T23:49:42;21.80;99.90
11095;DHT22;5601;44.490;11.400;2022-07-10T23:52:26;21.60;99.90
11095;DHT22;5601;44.490;11.400;2022-07-10T23:54:54;21.40;99.90
11095;DHT22;5601;44.490;11.400;2022-07-10T23:57:21;21.30;99.90
11095;DHT22;5601;44.490;11.400;2022-07-10T23:59:49;21.20;99.90
